createdAt,value
2019-05-13T01:20:37.808Z,4.33
2019-05-13T01:38:56.184Z,7.40
2019-05-13T02:00:19.440Z,7.47
2019-05-13T02:24:50.467Z,9.47
2019-05-13T02:30:45.529Z,11.93
2019-05-13T02:33:33.525Z,7.70
2019-05-13T02:36:17.122Z,5.53
2019-05-13T02:39:04.059Z,9.63
2019-05-13T02:41:52.740Z,8.87
2019-05-13T02:44:37.824Z,4.30
2019-05-13T02:47:24.931Z,4.70
2019-05-13T02:50:13.146Z,8.73
2019-05-13T03:08:41.107Z,5.47
2019-05-13T03:45:25.779Z,10.83
2019-05-13T03:48:13.714Z,10.60
2019-05-13T03:51:08.279Z,7.90
2019-05-13T03:53:55.929Z,12.10
2019-05-13T04:02:55.854Z,15.23
2019-05-13T04:05:43.902Z,6.87
2019-05-13T04:08:32.670Z,5.83
2019-05-13T04:11:17.134Z,7.70
2019-05-13T04:14:04.355Z,6.67
2019-05-13T04:16:53.939Z,4.97
2019-05-13T04:19:42.343Z,10.95
2019-05-13T04:22:35.729Z,10.60
2019-05-13T04:25:23.482Z,7.47
2019-05-13T04:34:23.161Z,8.93
2019-05-13T04:46:32.743Z,7.87
2019-05-13T04:49:19.090Z,8.40
2019-05-13T04:52:06.238Z,8.57
2019-05-13T05:35:38.815Z,13.63
2019-05-13T05:47:54.677Z,11.70
2019-05-13T05:50:56.475Z,9.10
2019-05-13T05:53:44.769Z,14.67
2019-05-13T05:56:34.257Z,9.27
2019-05-13T05:59:21.844Z,11.48
2019-05-13T06:02:08.045Z,15.93
2019-05-13T06:04:55.327Z,9.90
2019-05-13T06:07:56.673Z,14.80
2019-05-13T06:10:49.982Z,10.50
2019-05-13T06:13:31.625Z,11.00
2019-05-13T06:16:25.542Z,10.17
2019-05-13T06:19:12.375Z,10.87
2019-05-13T06:22:01.907Z,14.90
2019-05-13T06:24:46.108Z,10.32
2019-05-13T06:30:41.401Z,14.80
2019-05-13T06:33:27.318Z,12.80
2019-05-13T06:36:14.502Z,8.73
2019-05-13T06:39:02.237Z,11.73
2019-05-13T06:41:47.910Z,15.10
2019-05-13T06:47:47.469Z,9.97
2019-05-13T06:50:34.203Z,16.60
2019-05-13T06:53:21.859Z,13.10
2019-05-13T06:56:08.173Z,8.30
2019-05-13T07:02:02.080Z,15.32
2019-05-13T07:07:54.013Z,9.57
2019-05-13T07:10:41.577Z,8.48
2019-05-13T07:13:28.232Z,7.95
2019-05-13T07:22:35.444Z,10.50
2019-05-13T07:25:22.355Z,19.70
2019-05-13T07:28:09.168Z,10.25
2019-05-13T08:08:11.654Z,11.20
2019-05-13T08:10:57.155Z,9.80
2019-05-13T08:13:44.991Z,9.80
2019-05-13T08:16:32.401Z,10.98
2019-05-13T08:22:25.037Z,10.55
2019-05-13T08:25:12.597Z,18.15
2019-05-13T08:34:25.212Z,7.53
2019-05-13T08:37:12.531Z,8.38
2019-05-13T08:40:01.602Z,9.88
2019-05-13T08:42:47.989Z,7.12
2019-05-13T08:45:35.413Z,7.03
2019-05-13T08:48:22.485Z,8.15
2019-05-13T08:51:11.632Z,8.57
2019-05-13T08:53:57.170Z,8.90
2019-05-13T08:59:52.666Z,5.68
2019-05-13T09:05:45.771Z,6.62
2019-05-13T09:08:33.179Z,7.28
2019-05-13T09:11:22.206Z,5.37
2019-05-13T09:14:07.179Z,8.00
2019-05-13T09:16:56.752Z,5.07
2019-05-13T09:25:58.033Z,5.55
2019-05-13T09:28:45.457Z,7.65
2019-05-13T09:31:46.539Z,5.28
2019-05-13T09:34:33.410Z,6.80
2019-05-13T09:43:34.159Z,7.50
2019-05-13T09:49:42.142Z,5.97
2019-05-13T09:52:28.589Z,5.82
2019-05-13T09:55:26.338Z,9.23
2019-05-13T10:01:08.277Z,6.20
2019-05-13T10:03:58.201Z,5.72
2019-05-13T10:06:44.523Z,7.40
2019-05-13T10:09:32.735Z,5.68
2019-05-13T10:12:18.290Z,6.40
2019-05-13T10:15:05.271Z,7.85
2019-05-13T10:17:52.738Z,4.37
2019-05-13T10:20:48.262Z,6.70
2019-05-13T10:26:43.447Z,6.53
2019-05-13T10:29:31.706Z,6.87
2019-05-13T10:32:18.554Z,7.10
2019-05-13T10:35:05.485Z,5.60
2019-05-13T10:37:53.500Z,6.87
2019-05-13T10:40:43.058Z,8.20
2019-05-13T10:43:31.701Z,7.85
2019-05-13T10:46:14.890Z,6.80
2019-05-13T10:49:15.825Z,8.52
2019-05-13T10:52:03.427Z,5.55
2019-05-13T10:54:52.352Z,7.97
2019-05-13T10:57:36.606Z,7.15
2019-05-13T11:06:58.539Z,6.80
2019-05-13T11:12:52.177Z,4.62
2019-05-13T11:15:43.042Z,5.90
2019-05-13T11:18:26.502Z,4.43
2019-05-13T11:21:13.289Z,5.30
2019-05-13T11:24:07.595Z,4.35
2019-05-13T11:26:54.753Z,2.33
2019-05-13T11:29:42.993Z,4.72
2019-05-13T11:32:31.735Z,4.85
2019-05-13T11:41:32.438Z,3.83
2019-05-13T11:44:17.351Z,2.35
2019-05-13T11:47:03.879Z,3.70
2019-05-13T11:49:52.177Z,7.07
2019-05-13T11:52:37.915Z,1.17
2019-05-13T11:55:25.135Z,2.80
2019-05-13T11:58:13.753Z,3.92
2019-05-13T12:00:58.946Z,2.40
2019-05-13T12:03:47.066Z,1.95
2019-05-13T12:18:57.584Z,2.05
2019-05-13T12:25:04.786Z,1.30
2019-05-13T12:27:52.047Z,2.12
2019-05-13T12:30:39.290Z,2.05
2019-05-13T12:33:26.116Z,0.60
2019-05-13T12:36:17.986Z,2.22
2019-05-13T12:39:00.088Z,2.33
2019-05-13T12:41:47.047Z,1.75
2019-05-13T12:44:34.012Z,1.65
2019-05-13T12:50:32.893Z,1.02
2019-05-13T12:53:21.970Z,1.10
2019-05-13T12:56:06.678Z,0.75
2019-05-13T12:58:53.469Z,3.25
2019-05-13T13:01:40.391Z,1.73
2019-05-13T13:04:27.317Z,1.75
2019-05-13T13:07:14.725Z,2.83
2019-05-13T13:10:02.349Z,1.40
2019-05-13T13:12:54.501Z,2.67
2019-05-13T13:24:57.553Z,5.62
2019-05-13T13:28:10.035Z,1.95
2019-05-13T13:30:35.393Z,2.72
2019-05-13T13:42:36.420Z,1.10
2019-05-13T13:45:23.415Z,2.37
2019-05-13T13:48:13.249Z,1.55
2019-05-13T13:50:57.924Z,3.92
2019-05-13T14:03:06.359Z,2.40
2019-05-13T14:05:53.674Z,2.65
2019-05-13T14:11:43.239Z,3.72
2019-05-13T14:20:42.982Z,2.05
2019-05-13T14:23:31.758Z,3.15
2019-05-13T14:26:18.315Z,1.70
2019-05-13T14:29:05.297Z,1.87
2019-05-13T14:31:52.385Z,2.30
2019-05-13T14:34:41.869Z,2.15
2019-05-13T14:37:27.194Z,1.37
2019-05-13T14:40:14.633Z,1.33
2019-05-13T14:43:03.714Z,10.40
2019-05-13T14:48:54.192Z,1.08
2019-05-13T14:51:41.730Z,2.10
2019-05-13T15:00:43.809Z,2.20
2019-05-13T15:03:32.597Z,1.92
2019-05-13T15:06:21.552Z,2.35
2019-05-13T15:09:05.394Z,1.37
2019-05-13T15:12:07.707Z,2.05
2019-05-13T15:14:54.837Z,2.45
2019-05-13T15:17:42.609Z,2.95
2019-05-13T15:20:29.007Z,0.77
2019-05-13T15:23:16.101Z,1.42
2019-05-13T15:26:03.145Z,1.73
2019-05-13T15:28:51.817Z,1.23
2019-05-13T15:31:38.029Z,3.58
2019-05-13T15:34:25.880Z,2.60
2019-05-13T15:37:13.031Z,1.52
2019-05-13T15:40:02.318Z,0.98
2019-05-13T15:49:01.718Z,2.42
2019-05-13T15:51:51.152Z,1.73
2019-05-13T15:54:38.220Z,3.33
2019-05-13T15:57:25.288Z,1.23
2019-05-13T16:00:12.811Z,3.12
2019-05-13T16:03:01.455Z,1.45
2019-05-13T16:05:45.807Z,1.80
2019-05-13T16:08:32.664Z,0.93
2019-05-13T16:11:21.726Z,3.10
2019-05-13T16:14:06.281Z,1.25
2019-05-13T16:26:12.380Z,2.53
2019-05-13T16:32:05.468Z,1.25
2019-05-13T16:34:52.363Z,2.53
2019-05-13T16:37:41.301Z,1.48
2019-05-13T16:40:26.186Z,1.40
2019-05-13T16:43:13.343Z,1.85
2019-05-13T16:46:00.649Z,2.95
2019-05-13T17:04:21.428Z,1.87
2019-05-13T17:07:06.620Z,2.28
2019-05-13T17:09:53.978Z,1.70
2019-05-13T17:12:42.781Z,1.05
2019-05-13T17:15:28.402Z,1.70
2019-05-13T17:18:15.668Z,1.23
2019-05-13T17:21:02.346Z,1.42
2019-05-13T17:23:49.136Z,2.87
2019-05-13T17:29:42.226Z,2.97
2019-05-13T17:32:29.152Z,1.65
2019-05-13T17:35:15.970Z,2.65
2019-05-13T17:38:03.654Z,1.30
2019-05-13T17:40:52.965Z,1.52
2019-05-13T17:43:37.041Z,1.45
2019-05-13T17:46:24.328Z,2.22
2019-05-13T17:49:11.852Z,2.37
2019-05-13T17:51:57.922Z,1.67
2019-05-13T17:57:52.116Z,3.00
2019-05-13T18:00:41.390Z,0.77
2019-05-13T18:03:27.547Z,3.25
2019-05-13T18:06:14.650Z,2.97
2019-05-13T18:15:14.734Z,1.83
2019-05-13T18:18:02.115Z,4.97
2019-05-13T18:20:48.822Z,0.77
2019-05-13T18:29:51.195Z,1.27
2019-05-13T18:35:41.889Z,2.17
2019-05-13T18:38:31.146Z,3.90
2019-05-13T18:41:15.890Z,1.58
2019-05-13T18:44:02.975Z,1.73
2019-05-13T18:50:13.870Z,1.25
2019-05-13T18:53:01.769Z,1.95
2019-05-13T18:55:48.099Z,3.20
2019-05-13T18:58:35.516Z,2.10
2019-05-13T19:16:56.286Z,3.05
2019-05-13T19:19:43.244Z,1.27
2019-05-13T19:41:07.348Z,4.97
2019-05-13T19:43:54.899Z,1.63
2019-05-13T19:46:42.300Z,2.17
2019-05-13T19:49:33.737Z,0.93
2019-05-13T19:52:15.747Z,1.27
2019-05-13T19:55:04.070Z,2.17
2019-05-13T20:07:11.862Z,1.97
2019-05-13T20:16:11.711Z,5.93
2019-05-13T20:19:53.025Z,2.97
2019-05-13T20:44:32.880Z,1.77
2019-05-13T20:47:21.364Z,2.17
2019-05-13T20:50:06.484Z,4.07
2019-05-13T20:52:53.771Z,3.33
2019-05-13T20:55:41.744Z,4.72
2019-05-13T20:58:27.711Z,3.62
2019-05-13T21:04:21.696Z,2.63
2019-05-13T21:10:14.680Z,2.33
2019-05-13T22:02:41.125Z,2.10
2019-05-13T22:08:47.604Z,3.80
2019-05-13T22:24:13.296Z,0.67
2019-05-13T22:30:06.864Z,5.90
2019-05-13T22:32:53.795Z,1.03
2019-05-13T22:35:41.618Z,0.80
2019-05-13T22:38:27.601Z,3.27
2019-05-13T22:53:52.573Z,2.50
2019-05-13T22:56:41.242Z,3.03
2019-05-13T22:59:26.596Z,2.75
2019-05-13T23:02:13.851Z,2.40
2019-05-13T23:05:01.855Z,2.13
2019-05-13T23:07:48.184Z,2.30
2019-05-13T23:17:02.237Z,6.82
2019-05-13T23:19:52.194Z,1.30
2019-05-13T23:28:55.281Z,1.30
2019-05-13T23:31:41.952Z,2.93
2019-05-13T23:34:42.921Z,2.37
2019-05-13T23:37:31.061Z,2.87
2019-05-13T23:40:17.102Z,1.83
2019-05-13T23:43:04.584Z,2.85
2019-05-13T23:55:16.601Z,3.25
